PWSweather.com
Personal Weather Stations
Station Observations
WD4JKH
Forsyth, GA 31029

Forsyth, GA 31029

Lat: 33.033225, Lon: -83.927995

Elevation: 709

Station Type: Davis Vantage VUE

High Low Average
Temperature 89.9°F32.2°C 70.3°F21.3°C 78.3°F25.7°C
Dew Point 76.4°F24.7°C 69.4°F20.8°C 72.2°F22.3°C
Winds 7.6 mph 12.2 kmh Calm Calm 2.0 mph SW3.2 kmh SW
Wind Gusts 18.0 mph29.0 kmh -- 6.0 mph9.7 kmh
Humidity 98% 58% 83%
Pressure 30.10 in1019.3 mb 29.98 in1015.2 mb -
Precipitation 0.01 in0.3 mm - -
Hour Temp Dew Point Humidity Winds Wind Gusts Pressure Precip Precip Rate Daily Precip Total
12:00 AM 71.4°F21.9°C 70.5°F21.4°C 97% 2.3 mph W3.7 kmh W 7.0 mph11.3 kmh 30.04 in1017.3 mb 0.00 in0.0 mm 0.00 in0.0 mm 0.07 in1.8 mm
12:05 AM 71.4°F21.9°C 70.5°F21.4°C 97% 2.6 mph WNW4.2 kmh WNW 7.0 mph11.3 kmh 30.04 in1017.3 mb 0.00 in0.0 mm 0.00 in0.0 mm 0.07 in1.8 mm
12:10 AM 71.4°F21.9°C 70.2°F21.2°C 96% 2.4 mph WNW3.9 kmh WNW 7.0 mph11.3 kmh 30.03 in1016.9 mb 0.00 in0.0 mm 0.00 in0.0 mm 0.00 in0.0 mm
12:15 AM 71.5°F21.9°C 70.3°F21.3°C 96% 2.3 mph WNW3.7 kmh WNW 7.0 mph11.3 kmh 30.03 in1016.9 mb 0.00 in0.0 mm 0.00 in0.0 mm 0.00 in0.0 mm
12:20 AM 71.5°F21.9°C 70.3°F21.3°C 96% 3.2 mph WNW5.1 kmh WNW 8.0 mph12.9 kmh 30.03 in1016.9 mb 0.00 in0.0 mm 0.00 in0.0 mm 0.00 in0.0 mm
12:25 AM 71.6°F22.0°C 70.4°F21.3°C 96% 2.7 mph WNW4.3 kmh WNW 8.0 mph12.9 kmh 30.02 in1016.6 mb 0.00 in0.0 mm 0.00 in0.0 mm 0.00 in0.0 mm
12:30 AM 71.6°F22.0°C 70.4°F21.3°C 96% 3.0 mph WNW4.8 kmh WNW 8.0 mph12.9 kmh 30.02 in1016.6 mb 0.00 in0.0 mm 0.00 in0.0 mm 0.00 in0.0 mm
12:35 AM 71.7°F22.1°C 70.5°F21.4°C 96% 1.9 mph WNW3.1 kmh WNW 8.0 mph12.9 kmh 30.02 in1016.6 mb 0.00 in0.0 mm 0.00 in0.0 mm 0.00 in0.0 mm
12:40 AM 71.8°F22.1°C 70.6°F21.4°C 96% 3.3 mph WNW5.3 kmh WNW 7.0 mph11.3 kmh 30.02 in1016.6 mb 0.00 in0.0 mm 0.00 in0.0 mm 0.00 in0.0 mm
12:45 AM 71.8°F22.1°C 70.6°F21.4°C 96% 2.8 mph W4.5 kmh W 7.0 mph11.3 kmh 30.01 in1016.3 mb 0.00 in0.0 mm 0.00 in0.0 mm 0.00 in0.0 mm
12:50 AM 71.8°F22.1°C 70.6°F21.4°C 96% 2.7 mph WNW4.3 kmh WNW 7.0 mph11.3 kmh 30.01 in1016.3 mb 0.00 in0.0 mm 0.00 in0.0 mm 0.00 in0.0 mm
12:55 AM 71.9°F22.2°C 70.7°F21.5°C 96% 2.9 mph WNW4.7 kmh WNW 9.0 mph14.5 kmh 30.01 in1016.3 mb 0.00 in0.0 mm 0.00 in0.0 mm 0.00 in0.0 mm
01:00 AM 71.9°F22.2°C 70.4°F21.3°C 95% 2.8 mph WNW4.5 kmh WNW 9.0 mph14.5 kmh 30.01 in1016.3 mb 0.00 in0.0 mm 0.00 in0.0 mm 0.00 in0.0 mm
01:04 AM 71.9°F22.2°C 70.4°F21.3°C 95% 2.0 mph W3.2 kmh W 9.0 mph14.5 kmh 30.01 in1016.3 mb 0.00 in0.0 mm 0.00 in0.0 mm 0.00 in0.0 mm
01:09 AM 72.0°F22.2°C 70.5°F21.4°C 95% 1.2 mph W1.9 kmh W 9.0 mph14.5 kmh 30.01 in1016.3 mb 0.00 in0.0 mm 0.00 in0.0 mm 0.00 in0.0 mm
01:14 AM 72.0°F22.2°C 70.5°F21.4°C 95% 2.1 mph WNW3.4 kmh WNW 7.0 mph11.3 kmh 30.01 in1016.3 mb 0.00 in0.0 mm 0.00 in0.0 mm 0.00 in0.0 mm
01:19 AM 72.1°F22.3°C 70.6°F21.4°C 95% 1.5 mph W2.4 kmh W 7.0 mph11.3 kmh 30.01 in1016.3 mb 0.00 in0.0 mm 0.00 in0.0 mm 0.00 in0.0 mm
01:24 AM 72.1°F22.3°C 70.6°F21.4°C 95% 1.2 mph W1.9 kmh W 5.0 mph8.0 kmh 30.02 in1016.6 mb 0.00 in0.0 mm 0.00 in0.0 mm 0.00 in0.0 mm
01:29 AM 72.1°F22.3°C 70.6°F21.4°C 95% 1.0 mph W1.6 kmh W 5.0 mph8.0 kmh 30.03 in1016.9 mb 0.00 in0.0 mm 0.00 in0.0 mm 0.00 in0.0 mm
01:34 AM 72.0°F22.2°C 70.5°F21.4°C 95% Calm Calm 4.0 mph6.4 kmh 30.03 in1016.9 mb 0.00 in0.0 mm 0.00 in0.0 mm 0.00 in0.0 mm
01:39 AM 71.8°F22.1°C 70.3°F21.3°C 95% Calm Calm 2.0 mph3.2 kmh 30.03 in1016.9 mb 0.00 in0.0 mm 0.00 in0.0 mm 0.00 in0.0 mm
01:44 AM 71.8°F22.1°C 70.3°F21.3°C 95% Calm Calm 1.0 mph1.6 kmh 30.03 in1016.9 mb 0.00 in0.0 mm 0.00 in0.0 mm 0.00 in0.0 mm
01:49 AM 71.7°F22.1°C 70.2°F21.2°C 95% Calm Calm 1.0 mph1.6 kmh 30.03 in1016.9 mb 0.00 in0.0 mm 0.00 in0.0 mm 0.00 in0.0 mm
01:54 AM 71.6°F22.0°C 70.4°F21.3°C 96% 2.3 mph ESE3.7 kmh ESE 4.0 mph6.4 kmh 30.03 in1016.9 mb 0.00 in0.0 mm 0.00 in0.0 mm 0.00 in0.0 mm
01:59 AM 71.5°F21.9°C 70.3°F21.3°C 96% 1.1 mph ESE1.8 kmh ESE 4.0 mph6.4 kmh 30.03 in1016.9 mb 0.00 in0.0 mm 0.00 in0.0 mm 0.00 in0.0 mm
02:04 AM 71.4°F21.9°C 70.2°F21.2°C 96% 1.3 mph ESE2.1 kmh ESE 4.0 mph6.4 kmh 30.03 in1016.9 mb 0.00 in0.0 mm 0.00 in0.0 mm 0.00 in0.0 mm
02:09 AM 71.4°F21.9°C 70.2°F21.2°C 96% Calm Calm 4.0 mph6.4 kmh 30.03 in1016.9 mb 0.00 in0.0 mm 0.00 in0.0 mm 0.00 in0.0 mm
02:14 AM 71.3°F21.8°C 70.1°F21.2°C 96% Calm Calm 3.0 mph4.8 kmh 30.03 in1016.9 mb 0.00 in0.0 mm 0.00 in0.0 mm 0.00 in0.0 mm
02:19 AM 71.3°F21.8°C 70.1°F21.2°C 96% Calm Calm 2.0 mph3.2 kmh 30.03 in1016.9 mb 0.00 in0.0 mm 0.00 in0.0 mm 0.00 in0.0 mm
02:24 AM 71.3°F21.8°C 70.1°F21.2°C 96% Calm Calm -- 30.03 in1016.9 mb 0.00 in0.0 mm 0.00 in0.0 mm 0.00 in0.0 mm
02:29 AM 71.2°F21.8°C 70.0°F21.1°C 96% Calm Calm -- 30.03 in1016.9 mb 0.00 in0.0 mm 0.00 in0.0 mm 0.00 in0.0 mm
02:34 AM 71.2°F21.8°C 70.0°F21.1°C 96% 1.4 mph ESE2.3 kmh ESE 2.0 mph3.2 kmh 30.04 in1017.3 mb 0.00 in0.0 mm 0.00 in0.0 mm 0.00 in0.0 mm
02:39 AM 71.1°F21.7°C 69.9°F21.1°C 96% 1.3 mph SSE2.1 kmh SSE 3.0 mph4.8 kmh 30.04 in1017.3 mb 0.00 in0.0 mm 0.00 in0.0 mm 0.00 in0.0 mm
02:44 AM 71.1°F21.7°C 69.9°F21.1°C 96% Calm Calm 3.0 mph4.8 kmh 30.04 in1017.3 mb 0.00 in0.0 mm 0.00 in0.0 mm 0.00 in0.0 mm
02:49 AM 70.9°F21.6°C 70.0°F21.1°C 97% 1.0 mph SW1.6 kmh SW 3.0 mph4.8 kmh 30.04 in1017.3 mb 0.00 in0.0 mm 0.00 in0.0 mm 0.00 in0.0 mm
02:54 AM 70.8°F21.6°C 69.9°F21.1°C 97% 1.3 mph SW2.1 kmh SW 3.0 mph4.8 kmh 30.04 in1017.3 mb 0.00 in0.0 mm 0.00 in0.0 mm 0.00 in0.0 mm
02:59 AM 70.7°F21.5°C 69.8°F21.0°C 97% 1.4 mph SW2.3 kmh SW 3.0 mph4.8 kmh 30.04 in1017.3 mb 0.00 in0.0 mm 0.00 in0.0 mm 0.00 in0.0 mm
03:04 AM 70.7°F21.5°C 69.8°F21.0°C 97% 1.4 mph SE2.3 kmh SE 3.0 mph4.8 kmh 30.04 in1017.3 mb 0.00 in0.0 mm 0.00 in0.0 mm 0.00 in0.0 mm
03:09 AM 70.6°F21.4°C 69.7°F20.9°C 97% 1.7 mph S2.7 kmh S 4.0 mph6.4 kmh 30.04 in1017.3 mb 0.00 in0.0 mm 0.00 in0.0 mm 0.00 in0.0 mm
03:14 AM 70.6°F21.4°C 69.7°F20.9°C 97% 1.3 mph S2.1 kmh S 4.0 mph6.4 kmh 30.04 in1017.3 mb 0.00 in0.0 mm 0.00 in0.0 mm 0.00 in0.0 mm
03:19 AM 70.6°F21.4°C 69.7°F20.9°C 97% 2.5 mph SW4.0 kmh SW 8.0 mph12.9 kmh 30.04 in1017.3 mb 0.00 in0.0 mm 0.00 in0.0 mm 0.00 in0.0 mm
03:24 AM 70.5°F21.4°C 69.6°F20.9°C 97% 2.8 mph SW4.5 kmh SW 9.0 mph14.5 kmh 30.04 in1017.3 mb 0.00 in0.0 mm 0.00 in0.0 mm 0.00 in0.0 mm
03:29 AM 70.5°F21.4°C 69.6°F20.9°C 97% 2.1 mph S3.4 kmh S 9.0 mph14.5 kmh 30.03 in1016.9 mb 0.00 in0.0 mm 0.00 in0.0 mm 0.00 in0.0 mm
03:34 AM 70.4°F21.3°C 69.5°F20.8°C 97% 1.0 mph SE1.6 kmh SE 9.0 mph14.5 kmh 30.04 in1017.3 mb 0.00 in0.0 mm 0.00 in0.0 mm 0.00 in0.0 mm
03:39 AM 70.4°F21.3°C 69.5°F20.8°C 97% 1.6 mph SW2.6 kmh SW 9.0 mph14.5 kmh 30.04 in1017.3 mb 0.00 in0.0 mm 0.00 in0.0 mm 0.00 in0.0 mm
03:44 AM 70.3°F21.3°C 69.4°F20.8°C 97% 1.5 mph SW2.4 kmh SW 6.0 mph9.7 kmh 30.04 in1017.3 mb 0.00 in0.0 mm 0.00 in0.0 mm 0.00 in0.0 mm
03:49 AM 70.3°F21.3°C 69.4°F20.8°C 97% 2.0 mph SSW3.2 kmh SSW 6.0 mph9.7 kmh 30.04 in1017.3 mb 0.00 in0.0 mm 0.00 in0.0 mm 0.00 in0.0 mm
03:54 AM 70.3°F21.3°C 69.4°F20.8°C 97% 1.2 mph SW1.9 kmh SW 5.0 mph8.0 kmh 30.04 in1017.3 mb 0.00 in0.0 mm 0.00 in0.0 mm 0.00 in0.0 mm
03:59 AM 70.3°F21.3°C 69.7°F20.9°C 98% Calm Calm 5.0 mph8.0 kmh 30.04 in1017.3 mb 0.00 in0.0 mm 0.00 in0.0 mm 0.00 in0.0 mm
04:04 AM 70.3°F21.3°C 69.4°F20.8°C 97% Calm Calm 5.0 mph8.0 kmh 30.04 in1017.3 mb 0.00 in0.0 mm 0.00 in0.0 mm 0.00 in0.0 mm
04:09 AM 70.3°F21.3°C 69.7°F20.9°C 98% 1.0 mph SW1.6 kmh SW 3.0 mph4.8 kmh 30.04 in1017.3 mb 0.00 in0.0 mm 0.00 in0.0 mm 0.00 in0.0 mm
04:14 AM 70.3°F21.3°C 69.7°F20.9°C 98% 1.4 mph WSW2.3 kmh WSW 3.0 mph4.8 kmh 30.04 in1017.3 mb 0.00 in0.0 mm 0.00 in0.0 mm 0.00 in0.0 mm
04:19 AM 70.3°F21.3°C 69.7°F20.9°C 98% 1.9 mph WSW3.1 kmh WSW 4.0 mph6.4 kmh 30.04 in1017.3 mb 0.00 in0.0 mm 0.00 in0.0 mm 0.00 in0.0 mm
04:24 AM 70.3°F21.3°C 69.7°F20.9°C 98% 1.0 mph W1.6 kmh W 4.0 mph6.4 kmh 30.04 in1017.3 mb 0.00 in0.0 mm 0.00 in0.0 mm 0.00 in0.0 mm
04:29 AM 70.3°F21.3°C 69.7°F20.9°C 98% 1.0 mph SW1.6 kmh SW 4.0 mph6.4 kmh 30.04 in1017.3 mb 0.00 in0.0 mm 0.00 in0.0 mm 0.00 in0.0 mm
04:34 AM 70.3°F21.3°C 69.7°F20.9°C 98% 1.1 mph W1.8 kmh W 4.0 mph6.4 kmh 30.04 in1017.3 mb 0.00 in0.0 mm 0.00 in0.0 mm 0.00 in0.0 mm
04:39 AM 70.3°F21.3°C 69.7°F20.9°C 98% 1.0 mph W1.6 kmh W 2.0 mph3.2 kmh 30.03 in1016.9 mb 0.00 in0.0 mm 0.00 in0.0 mm 0.00 in0.0 mm
04:44 AM 70.3°F21.3°C 69.7°F20.9°C 98% 1.0 mph WSW1.6 kmh WSW 2.0 mph3.2 kmh 30.03 in1016.9 mb 0.00 in0.0 mm 0.00 in0.0 mm 0.00 in0.0 mm
04:49 AM 70.3°F21.3°C 69.7°F20.9°C 98% Calm Calm 2.0 mph3.2 kmh 30.03 in1016.9 mb 0.00 in0.0 mm 0.00 in0.0 mm 0.00 in0.0 mm
04:54 AM 70.3°F21.3°C 69.7°F20.9°C 98% 1.1 mph WSW1.8 kmh WSW 2.0 mph3.2 kmh 30.03 in1016.9 mb 0.00 in0.0 mm 0.00 in0.0 mm 0.00 in0.0 mm
04:59 AM 70.3°F21.3°C 69.7°F20.9°C 98% Calm Calm 2.0 mph3.2 kmh 30.03 in1016.9 mb 0.00 in0.0 mm 0.00 in0.0 mm 0.00 in0.0 mm
05:04 AM 70.3°F21.3°C 69.7°F20.9°C 98% 1.0 mph WNW1.6 kmh WNW 2.0 mph3.2 kmh 30.03 in1016.9 mb 0.00 in0.0 mm 0.00 in0.0 mm 0.00 in0.0 mm
05:09 AM 70.3°F21.3°C 69.7°F20.9°C 98% 1.4 mph WSW2.3 kmh WSW 2.0 mph3.2 kmh 30.03 in1016.9 mb 0.00 in0.0 mm 0.00 in0.0 mm 0.00 in0.0 mm
05:14 AM 70.3°F21.3°C 69.7°F20.9°C 98% 1.0 mph WSW1.6 kmh WSW 2.0 mph3.2 kmh 30.03 in1016.9 mb 0.00 in0.0 mm 0.00 in0.0 mm 0.00 in0.0 mm
05:19 AM 70.3°F21.3°C 69.7°F20.9°C 98% 1.5 mph WSW2.4 kmh WSW 3.0 mph4.8 kmh 30.03 in1016.9 mb 0.00 in0.0 mm 0.00 in0.0 mm 0.00 in0.0 mm
05:24 AM 70.3°F21.3°C 69.7°F20.9°C 98% 1.1 mph W1.8 kmh W 3.0 mph4.8 kmh 30.03 in1016.9 mb 0.00 in0.0 mm 0.00 in0.0 mm 0.00 in0.0 mm
05:29 AM 70.3°F21.3°C 69.7°F20.9°C 98% 1.1 mph W1.8 kmh W 3.0 mph4.8 kmh 30.03 in1016.9 mb 0.00 in0.0 mm 0.00 in0.0 mm 0.00 in0.0 mm
05:34 AM 70.3°F21.3°C 69.7°F20.9°C 98% 1.0 mph WSW1.6 kmh WSW 3.0 mph4.8 kmh 30.03 in1016.9 mb 0.00 in0.0 mm 0.00 in0.0 mm 0.00 in0.0 mm
05:39 AM 70.3°F21.3°C 69.7°F20.9°C 98% 1.0 mph WNW1.6 kmh WNW 3.0 mph4.8 kmh 30.03 in1016.9 mb 0.00 in0.0 mm 0.00 in0.0 mm 0.00 in0.0 mm
05:44 AM 70.3°F21.3°C 69.7°F20.9°C 98% 1.0 mph W1.6 kmh W 3.0 mph4.8 kmh 30.04 in1017.3 mb 0.00 in0.0 mm 0.00 in0.0 mm 0.00 in0.0 mm
05:49 AM 70.3°F21.3°C 69.7°F20.9°C 98% 1.0 mph W1.6 kmh W 2.0 mph3.2 kmh 30.04 in1017.3 mb 0.00 in0.0 mm 0.00 in0.0 mm 0.00 in0.0 mm
05:54 AM 70.3°F21.3°C 69.7°F20.9°C 98% 1.0 mph W1.6 kmh W 3.0 mph4.8 kmh 30.04 in1017.3 mb 0.00 in0.0 mm 0.00 in0.0 mm 0.00 in0.0 mm
05:59 AM 70.4°F21.3°C 69.8°F21.0°C 98% Calm Calm 3.0 mph4.8 kmh 30.04 in1017.3 mb 0.00 in0.0 mm 0.00 in0.0 mm 0.00 in0.0 mm
06:03 AM 70.4°F21.3°C 69.8°F21.0°C 98% 1.0 mph NNW1.6 kmh NNW 3.0 mph4.8 kmh 30.04 in1017.3 mb 0.00 in0.0 mm 0.00 in0.0 mm 0.00 in0.0 mm
06:08 AM 70.4°F21.3°C 69.8°F21.0°C 98% 1.0 mph WNW1.6 kmh WNW 3.0 mph4.8 kmh 30.04 in1017.3 mb 0.00 in0.0 mm 0.00 in0.0 mm 0.00 in0.0 mm
06:13 AM 70.4°F21.3°C 69.8°F21.0°C 98% 1.5 mph W2.4 kmh W 2.0 mph3.2 kmh 30.04 in1017.3 mb 0.00 in0.0 mm 0.00 in0.0 mm 0.00 in0.0 mm
06:18 AM 70.4°F21.3°C 69.8°F21.0°C 98% Calm Calm 2.0 mph3.2 kmh 30.04 in1017.3 mb 0.00 in0.0 mm 0.00 in0.0 mm 0.00 in0.0 mm
06:23 AM 70.4°F21.3°C 69.8°F21.0°C 98% 1.0 mph WSW1.6 kmh WSW 2.0 mph3.2 kmh 30.04 in1017.3 mb 0.00 in0.0 mm 0.00 in0.0 mm 0.00 in0.0 mm
06:28 AM 70.4°F21.3°C 69.8°F21.0°C 98% Calm Calm 2.0 mph3.2 kmh 30.04 in1017.3 mb 0.00 in0.0 mm 0.00 in0.0 mm 0.00 in0.0 mm
06:33 AM 70.4°F21.3°C 69.8°F21.0°C 98% 1.0 mph W1.6 kmh W 2.0 mph3.2 kmh 30.04 in1017.3 mb 0.00 in0.0 mm 0.00 in0.0 mm 0.00 in0.0 mm
06:38 AM 70.4°F21.3°C 69.8°F21.0°C 98% Calm Calm 2.0 mph3.2 kmh 30.05 in1017.6 mb 0.00 in0.0 mm 0.00 in0.0 mm 0.00 in0.0 mm
06:43 AM 70.4°F21.3°C 69.8°F21.0°C 98% Calm Calm 1.0 mph1.6 kmh 30.05 in1017.6 mb 0.00 in0.0 mm 0.00 in0.0 mm 0.00 in0.0 mm
06:48 AM 70.5°F21.4°C 69.9°F21.1°C 98% Calm Calm 1.0 mph1.6 kmh 30.05 in1017.6 mb 0.00 in0.0 mm 0.00 in0.0 mm 0.00 in0.0 mm
06:53 AM 70.5°F21.4°C 69.9°F21.1°C 98% Calm Calm 1.0 mph1.6 kmh 30.05 in1017.6 mb 0.00 in0.0 mm 0.00 in0.0 mm 0.00 in0.0 mm
06:58 AM 70.5°F21.4°C 69.9°F21.1°C 98% Calm Calm 1.0 mph1.6 kmh 30.05 in1017.6 mb 0.00 in0.0 mm 0.00 in0.0 mm 0.00 in0.0 mm
07:03 AM 70.6°F21.4°C 70.0°F21.1°C 98% Calm Calm 1.0 mph1.6 kmh 30.06 in1017.9 mb 0.01 in0.3 mm 0.01 in0.3 mm 0.01 in0.3 mm
07:08 AM 70.6°F21.4°C 70.0°F21.1°C 98% Calm Calm 1.0 mph1.6 kmh 30.06 in1017.9 mb 0.01 in0.3 mm 0.00 in0.0 mm 0.01 in0.3 mm
07:13 AM 70.7°F21.5°C 70.1°F21.2°C 98% Calm Calm -- 30.06 in1017.9 mb 0.01 in0.3 mm 0.00 in0.0 mm 0.01 in0.3 mm
07:18 AM 70.6°F21.4°C 70.0°F21.1°C 98% Calm Calm 1.0 mph1.6 kmh 30.06 in1017.9 mb 0.01 in0.3 mm 0.00 in0.0 mm 0.01 in0.3 mm
07:23 AM 70.5°F21.4°C 69.9°F21.1°C 98% 1.0 mph SW1.6 kmh SW 1.0 mph1.6 kmh 30.07 in1018.3 mb 0.01 in0.3 mm 0.00 in0.0 mm 0.01 in0.3 mm
07:28 AM 70.4°F21.3°C 69.8°F21.0°C 98% 1.4 mph SW2.3 kmh SW 4.0 mph6.4 kmh 30.07 in1018.3 mb 0.01 in0.3 mm 0.00 in0.0 mm 0.01 in0.3 mm
07:33 AM 70.5°F21.4°C 69.9°F21.1°C 98% 2.5 mph SW4.0 kmh SW 6.0 mph9.7 kmh 30.07 in1018.3 mb 0.01 in0.3 mm 0.00 in0.0 mm 0.01 in0.3 mm
07:38 AM 70.5°F21.4°C 69.9°F21.1°C 98% 1.0 mph SW1.6 kmh SW 6.0 mph9.7 kmh 30.07 in1018.3 mb 0.01 in0.3 mm 0.00 in0.0 mm 0.01 in0.3 mm
07:43 AM 70.5°F21.4°C 69.9°F21.1°C 98% 2.2 mph SW3.5 kmh SW 6.0 mph9.7 kmh 30.07 in1018.3 mb 0.01 in0.3 mm 0.00 in0.0 mm 0.01 in0.3 mm
07:48 AM 70.6°F21.4°C 70.0°F21.1°C 98% 1.3 mph SW2.1 kmh SW 6.0 mph9.7 kmh 30.08 in1018.6 mb 0.01 in0.3 mm 0.00 in0.0 mm 0.01 in0.3 mm
07:53 AM 70.7°F21.5°C 70.1°F21.2°C 98% 1.0 mph SSW1.6 kmh SSW 5.0 mph8.0 kmh 30.08 in1018.6 mb 0.01 in0.3 mm 0.00 in0.0 mm 0.01 in0.3 mm
07:58 AM 70.8°F21.6°C 70.2°F21.2°C 98% 3.1 mph SW5.0 kmh SW 5.0 mph8.0 kmh 30.08 in1018.6 mb 0.01 in0.3 mm 0.00 in0.0 mm 0.01 in0.3 mm
08:03 AM 70.8°F21.6°C 70.2°F21.2°C 98% 1.0 mph SW1.6 kmh SW 5.0 mph8.0 kmh 30.08 in1018.6 mb 0.00 in0.0 mm 0.00 in0.0 mm 0.01 in0.3 mm
08:08 AM 70.9°F21.6°C 70.3°F21.3°C 98% 1.1 mph SW1.8 kmh SW 5.0 mph8.0 kmh 30.08 in1018.6 mb 0.00 in0.0 mm 0.00 in0.0 mm 0.01 in0.3 mm
08:13 AM 71.0°F21.7°C 70.4°F21.3°C 98% 1.5 mph SW2.4 kmh SW 5.0 mph8.0 kmh 30.09 in1019.0 mb 0.00 in0.0 mm 0.00 in0.0 mm 0.01 in0.3 mm
08:18 AM 71.1°F21.7°C 70.5°F21.4°C 98% 1.5 mph S2.4 kmh S 4.0 mph6.4 kmh 30.08 in1018.6 mb 0.00 in0.0 mm 0.00 in0.0 mm 0.01 in0.3 mm
08:23 AM 71.1°F21.7°C 70.5°F21.4°C 98% 1.6 mph SW2.6 kmh SW 4.0 mph6.4 kmh 30.09 in1019.0 mb 0.00 in0.0 mm 0.00 in0.0 mm 0.01 in0.3 mm
08:28 AM 71.2°F21.8°C 70.6°F21.4°C 98% 1.3 mph WSW2.1 kmh WSW 3.0 mph4.8 kmh 30.09 in1019.0 mb 0.00 in0.0 mm 0.00 in0.0 mm 0.01 in0.3 mm
08:33 AM 71.2°F21.8°C 70.6°F21.4°C 98% 1.8 mph SW2.9 kmh SW 3.0 mph4.8 kmh 30.09 in1019.0 mb 0.00 in0.0 mm 0.00 in0.0 mm 0.01 in0.3 mm
08:38 AM 71.4°F21.9°C 70.8°F21.6°C 98% 1.0 mph SW1.6 kmh SW 3.0 mph4.8 kmh 30.09 in1019.0 mb 0.00 in0.0 mm 0.00 in0.0 mm 0.01 in0.3 mm
08:43 AM 71.4°F21.9°C 70.8°F21.6°C 98% 2.3 mph SW3.7 kmh SW 4.0 mph6.4 kmh 30.10 in1019.3 mb 0.00 in0.0 mm 0.00 in0.0 mm 0.01 in0.3 mm
08:48 AM 71.4°F21.9°C 70.8°F21.6°C 98% 1.3 mph SW2.1 kmh SW 6.0 mph9.7 kmh 30.10 in1019.3 mb 0.00 in0.0 mm 0.00 in0.0 mm 0.01 in0.3 mm
08:53 AM 71.7°F22.1°C 71.1°F21.7°C 98% 1.3 mph SSW2.1 kmh SSW 6.0 mph9.7 kmh 30.10 in1019.3 mb 0.00 in0.0 mm 0.00 in0.0 mm 0.01 in0.3 mm
08:58 AM 71.7°F22.1°C 71.1°F21.7°C 98% 1.7 mph SW2.7 kmh SW 6.0 mph9.7 kmh 30.10 in1019.3 mb 0.00 in0.0 mm 0.00 in0.0 mm 0.01 in0.3 mm
09:03 AM 71.8°F22.1°C 71.2°F21.8°C 98% 1.4 mph SW2.3 kmh SW 6.0 mph9.7 kmh 30.10 in1019.3 mb 0.00 in0.0 mm 0.00 in0.0 mm 0.01 in0.3 mm
09:08 AM 72.0°F22.2°C 71.4°F21.9°C 98% 1.7 mph SW2.7 kmh SW 5.0 mph8.0 kmh 30.10 in1019.3 mb 0.00 in0.0 mm 0.00 in0.0 mm 0.01 in0.3 mm
09:13 AM 72.1°F22.3°C 71.5°F21.9°C 98% 2.3 mph SW3.7 kmh SW 5.0 mph8.0 kmh 30.10 in1019.3 mb 0.00 in0.0 mm 0.00 in0.0 mm 0.01 in0.3 mm
09:18 AM 72.1°F22.3°C 71.5°F21.9°C 98% 1.8 mph SW2.9 kmh SW 5.0 mph8.0 kmh 30.10 in1019.3 mb 0.00 in0.0 mm 0.00 in0.0 mm 0.01 in0.3 mm
09:23 AM 72.4°F22.4°C 71.8°F22.1°C 98% 2.3 mph SW3.7 kmh SW 5.0 mph8.0 kmh 30.10 in1019.3 mb 0.00 in0.0 mm 0.00 in0.0 mm 0.01 in0.3 mm
09:28 AM 72.7°F22.6°C 72.1°F22.3°C 98% Calm Calm 4.0 mph6.4 kmh 30.10 in1019.3 mb 0.00 in0.0 mm 0.00 in0.0 mm 0.01 in0.3 mm
09:33 AM 73.1°F22.8°C 72.5°F22.5°C 98% 2.1 mph SSW3.4 kmh SSW 4.0 mph6.4 kmh 30.10 in1019.3 mb 0.00 in0.0 mm 0.00 in0.0 mm 0.01 in0.3 mm
09:38 AM 72.9°F22.7°C 72.0°F22.2°C 97% 1.9 mph SW3.1 kmh SW 8.0 mph12.9 kmh 30.10 in1019.3 mb 0.00 in0.0 mm 0.00 in0.0 mm 0.01 in0.3 mm
09:43 AM 73.2°F22.9°C 72.3°F22.4°C 97% 2.3 mph SW3.7 kmh SW 8.0 mph12.9 kmh 30.10 in1019.3 mb 0.00 in0.0 mm 0.00 in0.0 mm 0.01 in0.3 mm
09:48 AM 73.4°F23.0°C 72.5°F22.5°C 97% 1.8 mph SW2.9 kmh SW 8.0 mph12.9 kmh 30.10 in1019.3 mb 0.00 in0.0 mm 0.00 in0.0 mm 0.01 in0.3 mm
09:53 AM 73.7°F23.2°C 72.5°F22.5°C 96% 3.7 mph SW6.0 kmh SW 8.0 mph12.9 kmh 30.09 in1019.0 mb 0.00 in0.0 mm 0.00 in0.0 mm 0.01 in0.3 mm
09:58 AM 73.9°F23.3°C 72.7°F22.6°C 96% 2.5 mph SW4.0 kmh SW 6.0 mph9.7 kmh 30.09 in1019.0 mb 0.00 in0.0 mm 0.00 in0.0 mm 0.01 in0.3 mm
10:03 AM 74.1°F23.4°C 72.5°F22.5°C 95% 2.3 mph SW3.7 kmh SW 6.0 mph9.7 kmh 30.09 in1019.0 mb 0.00 in0.0 mm 0.00 in0.0 mm 0.01 in0.3 mm
10:08 AM 74.6°F23.7°C 73.0°F22.8°C 95% 2.3 mph SSW3.7 kmh SSW 6.0 mph9.7 kmh 30.09 in1019.0 mb 0.00 in0.0 mm 0.00 in0.0 mm 0.01 in0.3 mm
10:13 AM 75.3°F24.1°C 73.4°F23.0°C 94% 2.5 mph SSW4.0 kmh SSW 5.0 mph8.0 kmh 30.09 in1019.0 mb 0.00 in0.0 mm 0.00 in0.0 mm 0.01 in0.3 mm
10:18 AM 75.9°F24.4°C 73.4°F23.0°C 92% 1.9 mph SW3.1 kmh SW 5.0 mph8.0 kmh 30.09 in1019.0 mb 0.00 in0.0 mm 0.00 in0.0 mm 0.01 in0.3 mm
10:23 AM 76.3°F24.6°C 73.8°F23.2°C 92% 1.8 mph WSW2.9 kmh WSW 5.0 mph8.0 kmh 30.09 in1019.0 mb 0.00 in0.0 mm 0.00 in0.0 mm 0.01 in0.3 mm
10:28 AM 76.6°F24.8°C 73.4°F23.0°C 90% 3.7 mph SW6.0 kmh SW 8.0 mph12.9 kmh 30.09 in1019.0 mb 0.00 in0.0 mm 0.00 in0.0 mm 0.01 in0.3 mm
10:33 AM 76.9°F24.9°C 73.4°F23.0°C 89% 1.1 mph SW1.8 kmh SW 8.0 mph12.9 kmh 30.09 in1019.0 mb 0.00 in0.0 mm 0.00 in0.0 mm 0.01 in0.3 mm
10:38 AM 77.5°F25.3°C 73.3°F22.9°C 87% 2.2 mph SW3.5 kmh SW 8.0 mph12.9 kmh 30.09 in1019.0 mb 0.00 in0.0 mm 0.00 in0.0 mm 0.01 in0.3 mm
10:43 AM 77.7°F25.4°C 73.5°F23.1°C 87% 1.9 mph SSW3.1 kmh SSW 8.0 mph12.9 kmh 30.09 in1019.0 mb 0.00 in0.0 mm 0.00 in0.0 mm 0.01 in0.3 mm
10:48 AM 78.4°F25.8°C 74.2°F23.4°C 87% 1.0 mph SSE1.6 kmh SSE 7.0 mph11.3 kmh 30.08 in1018.6 mb 0.00 in0.0 mm 0.00 in0.0 mm 0.01 in0.3 mm
10:53 AM 78.8°F26.0°C 74.0°F23.3°C 85% 1.1 mph SW1.8 kmh SW 7.0 mph11.3 kmh 30.08 in1018.6 mb 0.00 in0.0 mm 0.00 in0.0 mm 0.01 in0.3 mm
10:58 AM 79.4°F26.3°C 74.2°F23.4°C 84% 1.4 mph SW2.3 kmh SW 7.0 mph11.3 kmh 30.08 in1018.6 mb 0.00 in0.0 mm 0.00 in0.0 mm 0.01 in0.3 mm
11:03 AM 79.7°F26.5°C 74.5°F23.6°C 84% 1.0 mph WSW1.6 kmh WSW 7.0 mph11.3 kmh 30.08 in1018.6 mb 0.00 in0.0 mm 0.00 in0.0 mm 0.01 in0.3 mm
11:08 AM 80.2°F26.8°C 74.3°F23.5°C 82% 1.0 mph WSW1.6 kmh WSW 4.0 mph6.4 kmh 30.08 in1018.6 mb 0.00 in0.0 mm 0.00 in0.0 mm 0.01 in0.3 mm
11:13 AM 80.7°F27.1°C 74.0°F23.3°C 80% 3.4 mph SW5.5 kmh SW 8.0 mph12.9 kmh 30.08 in1018.6 mb 0.00 in0.0 mm 0.00 in0.0 mm 0.01 in0.3 mm
11:18 AM 80.8°F27.1°C 74.4°F23.6°C 81% 1.0 mph SW1.6 kmh SW 8.0 mph12.9 kmh 30.08 in1018.6 mb 0.00 in0.0 mm 0.00 in0.0 mm 0.01 in0.3 mm
11:23 AM 80.7°F27.1°C 73.3°F22.9°C 78% 3.4 mph WSW5.5 kmh WSW 8.0 mph12.9 kmh 30.08 in1018.6 mb 0.00 in0.0 mm 0.00 in0.0 mm 0.01 in0.3 mm
11:28 AM 80.9°F27.2°C 73.9°F23.3°C 79% 2.8 mph WSW4.5 kmh WSW 8.0 mph12.9 kmh 30.08 in1018.6 mb 0.00 in0.0 mm 0.00 in0.0 mm 0.01 in0.3 mm
11:33 AM 81.4°F27.4°C 73.9°F23.3°C 78% 1.5 mph WNW2.4 kmh WNW 7.0 mph11.3 kmh 30.07 in1018.3 mb 0.00 in0.0 mm 0.00 in0.0 mm 0.01 in0.3 mm
11:38 AM 81.8°F27.7°C 73.7°F23.2°C 76% 2.5 mph W4.0 kmh W 7.0 mph11.3 kmh 30.07 in1018.3 mb 0.00 in0.0 mm 0.00 in0.0 mm 0.01 in0.3 mm
11:43 AM 82.0°F27.8°C 75.0°F23.9°C 79% 1.2 mph SSE1.9 kmh SSE 6.0 mph9.7 kmh 30.07 in1018.3 mb 0.00 in0.0 mm 0.00 in0.0 mm 0.01 in0.3 mm
11:48 AM 82.8°F28.2°C 75.0°F23.9°C 77% 1.4 mph SSW2.3 kmh SSW 6.0 mph9.7 kmh 30.07 in1018.3 mb 0.00 in0.0 mm 0.00 in0.0 mm 0.01 in0.3 mm
11:53 AM 83.1°F28.4°C 74.7°F23.7°C 76% 1.7 mph SSW2.7 kmh SSW 6.0 mph9.7 kmh 30.08 in1018.6 mb 0.00 in0.0 mm 0.00 in0.0 mm 0.01 in0.3 mm
11:58 AM 83.4°F28.6°C 75.2°F24.0°C 76% 1.8 mph SW2.9 kmh SW 4.0 mph6.4 kmh 30.08 in1018.6 mb 0.00 in0.0 mm 0.00 in0.0 mm 0.01 in0.3 mm
12:02 PM 82.9°F28.3°C 74.7°F23.7°C 76% 2.4 mph SSW3.9 kmh SSW 6.0 mph9.7 kmh 30.08 in1018.6 mb 0.00 in0.0 mm 0.00 in0.0 mm 0.01 in0.3 mm
12:07 PM 82.9°F28.3°C 74.9°F23.8°C 77% 1.5 mph SE2.4 kmh SE 6.0 mph9.7 kmh 30.08 in1018.6 mb 0.00 in0.0 mm 0.00 in0.0 mm 0.01 in0.3 mm
12:12 PM 82.9°F28.3°C 75.1°F23.9°C 77% 1.4 mph SW2.3 kmh SW 7.0 mph11.3 kmh 30.08 in1018.6 mb 0.00 in0.0 mm 0.00 in0.0 mm 0.01 in0.3 mm
12:17 PM 83.4°F28.6°C 75.2°F24.0°C 76% 1.4 mph SW2.3 kmh SW 7.0 mph11.3 kmh 30.08 in1018.6 mb 0.00 in0.0 mm 0.00 in0.0 mm 0.01 in0.3 mm
12:22 PM 83.4°F28.6°C 75.2°F24.0°C 76% 2.1 mph SSE3.4 kmh SSE 7.0 mph11.3 kmh 30.08 in1018.6 mb 0.00 in0.0 mm 0.00 in0.0 mm 0.01 in0.3 mm
12:27 PM 83.6°F28.7°C 75.8°F24.3°C 77% 1.0 mph SW1.6 kmh SW 7.0 mph11.3 kmh 30.08 in1018.6 mb 0.00 in0.0 mm 0.00 in0.0 mm 0.01 in0.3 mm
12:32 PM 83.3°F28.5°C 74.5°F23.6°C 75% 2.3 mph SSW3.7 kmh SSW 8.0 mph12.9 kmh 30.07 in1018.3 mb 0.00 in0.0 mm 0.00 in0.0 mm 0.01 in0.3 mm
12:37 PM 83.0°F28.3°C 75.2°F24.0°C 77% 2.0 mph WSW3.2 kmh WSW 8.0 mph12.9 kmh 30.07 in1018.3 mb 0.00 in0.0 mm 0.00 in0.0 mm 0.01 in0.3 mm
12:42 PM 83.7°F28.7°C 75.5°F24.2°C 76% 2.6 mph SW4.2 kmh SW 8.0 mph12.9 kmh 30.07 in1018.3 mb 0.00 in0.0 mm 0.00 in0.0 mm 0.01 in0.3 mm
12:47 PM 83.7°F28.7°C 75.3°F24.1°C 76% 1.8 mph SW2.9 kmh SW 8.0 mph12.9 kmh 30.07 in1018.3 mb 0.00 in0.0 mm 0.00 in0.0 mm 0.01 in0.3 mm
12:52 PM 84.2°F29.0°C 75.6°F24.2°C 75% 1.0 mph ESE1.6 kmh ESE 7.0 mph11.3 kmh 30.07 in1018.3 mb 0.00 in0.0 mm 0.00 in0.0 mm 0.01 in0.3 mm
12:57 PM 84.5°F29.2°C 75.5°F24.2°C 74% 3.1 mph SW5.0 kmh SW 7.0 mph11.3 kmh 30.07 in1018.3 mb 0.00 in0.0 mm 0.00 in0.0 mm 0.01 in0.3 mm
01:02 PM 84.8°F29.3°C 75.4°F24.1°C 73% 2.8 mph S4.5 kmh S 7.0 mph11.3 kmh 30.07 in1018.3 mb 0.00 in0.0 mm 0.00 in0.0 mm 0.01 in0.3 mm
01:07 PM 84.5°F29.2°C 75.5°F24.2°C 74% 2.8 mph SW4.5 kmh SW 7.0 mph11.3 kmh 30.07 in1018.3 mb 0.00 in0.0 mm 0.00 in0.0 mm 0.01 in0.3 mm
01:12 PM 84.6°F29.2°C 75.6°F24.2°C 74% 3.5 mph SE5.6 kmh SE 7.0 mph11.3 kmh 30.07 in1018.3 mb 0.00 in0.0 mm 0.00 in0.0 mm 0.01 in0.3 mm
01:17 PM 85.0°F29.4°C 75.6°F24.2°C 73% 3.8 mph SW6.1 kmh SW 10.0 mph16.1 kmh 30.06 in1017.9 mb 0.00 in0.0 mm 0.00 in0.0 mm 0.01 in0.3 mm
01:22 PM 85.0°F29.4°C 75.2°F24.0°C 72% 2.2 mph SW3.5 kmh SW 10.0 mph16.1 kmh 30.06 in1017.9 mb 0.00 in0.0 mm 0.00 in0.0 mm 0.01 in0.3 mm
01:27 PM 85.5°F29.7°C 75.7°F24.3°C 72% 1.6 mph SSE2.6 kmh SSE 10.0 mph16.1 kmh 30.06 in1017.9 mb 0.00 in0.0 mm 0.00 in0.0 mm 0.01 in0.3 mm
01:32 PM 85.7°F29.8°C 75.2°F24.0°C 71% 2.9 mph SW4.7 kmh SW 10.0 mph16.1 kmh 30.06 in1017.9 mb 0.00 in0.0 mm 0.00 in0.0 mm 0.01 in0.3 mm
01:37 PM 85.8°F29.9°C 75.6°F24.2°C 71% 1.9 mph S3.1 kmh S 10.0 mph16.1 kmh 30.06 in1017.9 mb 0.00 in0.0 mm 0.00 in0.0 mm 0.01 in0.3 mm
01:42 PM 85.9°F29.9°C 75.2°F24.0°C 70% 2.8 mph S4.5 kmh S 11.0 mph17.7 kmh 30.06 in1017.9 mb 0.00 in0.0 mm 0.00 in0.0 mm 0.01 in0.3 mm
01:47 PM 86.5°F30.3°C 76.2°F24.6°C 71% 1.6 mph S2.6 kmh S 11.0 mph17.7 kmh 30.06 in1017.9 mb 0.00 in0.0 mm 0.00 in0.0 mm 0.01 in0.3 mm
01:52 PM 86.6°F30.3°C 75.1°F23.9°C 68% 1.3 mph S2.1 kmh S 11.0 mph17.7 kmh 30.06 in1017.9 mb 0.00 in0.0 mm 0.00 in0.0 mm 0.01 in0.3 mm
01:57 PM 86.7°F30.4°C 75.6°F24.2°C 69% 3.2 mph SE5.1 kmh SE 11.0 mph17.7 kmh 30.05 in1017.6 mb 0.00 in0.0 mm 0.00 in0.0 mm 0.01 in0.3 mm
02:02 PM 87.2°F30.7°C 76.1°F24.5°C 69% 1.2 mph SSW1.9 kmh SSW 7.0 mph11.3 kmh 30.05 in1017.6 mb 0.00 in0.0 mm 0.00 in0.0 mm 0.01 in0.3 mm
02:07 PM 87.4°F30.8°C 75.8°F24.3°C 68% 2.6 mph S4.2 kmh S 7.0 mph11.3 kmh 30.05 in1017.6 mb 0.00 in0.0 mm 0.00 in0.0 mm 0.01 in0.3 mm
02:12 PM 87.4°F30.8°C 75.5°F24.2°C 68% 2.1 mph SW3.4 kmh SW 7.0 mph11.3 kmh 30.05 in1017.6 mb 0.00 in0.0 mm 0.00 in0.0 mm 0.01 in0.3 mm
02:17 PM 88.0°F31.1°C 76.4°F24.7°C 68% 2.2 mph SW3.5 kmh SW 6.0 mph9.7 kmh 30.04 in1017.3 mb 0.00 in0.0 mm 0.00 in0.0 mm 0.01 in0.3 mm
02:22 PM 87.6°F30.9°C 75.1°F23.9°C 66% 3.0 mph SW4.8 kmh SW 6.0 mph9.7 kmh 30.04 in1017.3 mb 0.00 in0.0 mm 0.00 in0.0 mm 0.01 in0.3 mm
02:27 PM 87.4°F30.8°C 74.9°F23.8°C 66% 3.6 mph SW5.8 kmh SW 8.0 mph12.9 kmh 30.04 in1017.3 mb 0.00 in0.0 mm 0.00 in0.0 mm 0.01 in0.3 mm
02:32 PM 87.7°F30.9°C 75.7°F24.3°C 67% 2.5 mph S4.0 kmh S 8.0 mph12.9 kmh 30.04 in1017.3 mb 0.00 in0.0 mm 0.00 in0.0 mm 0.01 in0.3 mm
02:37 PM 87.9°F31.1°C 75.4°F24.1°C 66% 2.8 mph WSW4.5 kmh WSW 8.0 mph12.9 kmh 30.04 in1017.3 mb 0.00 in0.0 mm 0.00 in0.0 mm 0.01 in0.3 mm
02:42 PM 88.4°F31.3°C 76.3°F24.6°C 67% 2.3 mph SW3.7 kmh SW 8.0 mph12.9 kmh 30.03 in1016.9 mb 0.00 in0.0 mm 0.00 in0.0 mm 0.01 in0.3 mm
02:47 PM 88.5°F31.4°C 76.4°F24.7°C 67% 2.1 mph S3.4 kmh S 7.0 mph11.3 kmh 30.04 in1017.3 mb 0.00 in0.0 mm 0.00 in0.0 mm 0.01 in0.3 mm
02:52 PM 88.3°F31.3°C 75.0°F23.9°C 65% 2.0 mph S3.2 kmh S 8.0 mph12.9 kmh 30.04 in1017.3 mb 0.00 in0.0 mm 0.00 in0.0 mm 0.01 in0.3 mm
02:57 PM 88.3°F31.3°C 75.0°F23.9°C 65% 3.2 mph SW5.1 kmh SW 8.0 mph12.9 kmh 30.03 in1016.9 mb 0.00 in0.0 mm 0.00 in0.0 mm 0.01 in0.3 mm
03:02 PM 88.1°F31.2°C 75.1°F23.9°C 65% 2.4 mph S3.9 kmh S 8.0 mph12.9 kmh 30.03 in1016.9 mb 0.00 in0.0 mm 0.00 in0.0 mm 0.01 in0.3 mm
03:07 PM 88.3°F31.3°C 75.3°F24.1°C 65% 2.6 mph S4.2 kmh S 8.0 mph12.9 kmh 30.03 in1016.9 mb 0.00 in0.0 mm 0.00 in0.0 mm 0.01 in0.3 mm
03:12 PM 88.6°F31.4°C 75.6°F24.2°C 65% 2.9 mph SW4.7 kmh SW 8.0 mph12.9 kmh 30.03 in1016.9 mb 0.00 in0.0 mm 0.00 in0.0 mm 0.01 in0.3 mm
03:17 PM 88.9°F31.6°C 75.0°F23.9°C 63% 3.6 mph SW5.8 kmh SW 8.0 mph12.9 kmh 30.02 in1016.6 mb 0.00 in0.0 mm 0.00 in0.0 mm 0.01 in0.3 mm
03:22 PM 88.1°F31.2°C 74.7°F23.7°C 64% 2.2 mph S3.5 kmh S 8.0 mph12.9 kmh 30.02 in1016.6 mb 0.00 in0.0 mm 0.00 in0.0 mm 0.01 in0.3 mm
03:27 PM 87.8°F31.0°C 74.9°F23.8°C 65% 2.1 mph S3.4 kmh S 8.0 mph12.9 kmh 30.02 in1016.6 mb 0.00 in0.0 mm 0.00 in0.0 mm 0.01 in0.3 mm
03:32 PM 87.5°F30.8°C 74.6°F23.7°C 65% 2.6 mph SSW4.2 kmh SSW 8.0 mph12.9 kmh 30.02 in1016.6 mb 0.00 in0.0 mm 0.00 in0.0 mm 0.01 in0.3 mm
03:37 PM 87.9°F31.1°C 74.2°F23.4°C 64% 1.6 mph SSW2.6 kmh SSW 8.0 mph12.9 kmh 30.02 in1016.6 mb 0.00 in0.0 mm 0.00 in0.0 mm 0.01 in0.3 mm
03:42 PM 88.7°F31.5°C 74.3°F23.5°C 62% 1.4 mph SW2.3 kmh SW 7.0 mph11.3 kmh 30.01 in1016.3 mb 0.00 in0.0 mm 0.00 in0.0 mm 0.01 in0.3 mm
03:47 PM 88.7°F31.5°C 75.3°F24.1°C 64% 1.8 mph S2.9 kmh S 7.0 mph11.3 kmh 30.01 in1016.3 mb 0.00 in0.0 mm 0.00 in0.0 mm 0.01 in0.3 mm
03:52 PM 88.9°F31.6°C 72.2°F22.3°C 58% 3.6 mph SW5.8 kmh SW 9.0 mph14.5 kmh 30.01 in1016.3 mb 0.00 in0.0 mm 0.00 in0.0 mm 0.01 in0.3 mm
03:57 PM 88.9°F31.6°C 74.5°F23.6°C 62% 1.0 mph SSW1.6 kmh SSW 9.0 mph14.5 kmh 30.00 in1015.9 mb 0.00 in0.0 mm 0.00 in0.0 mm 0.01 in0.3 mm
04:02 PM 89.3°F31.8°C 74.4°F23.6°C 61% 2.4 mph SSW3.9 kmh SSW 9.0 mph14.5 kmh 30.00 in1015.9 mb 0.00 in0.0 mm 0.00 in0.0 mm 0.01 in0.3 mm
04:07 PM 89.2°F31.8°C 74.8°F23.8°C 62% 2.6 mph SW4.2 kmh SW 11.0 mph17.7 kmh 30.00 in1015.9 mb 0.00 in0.0 mm 0.00 in0.0 mm 0.01 in0.3 mm
04:12 PM 89.1°F31.7°C 75.2°F24.0°C 63% 3.9 mph SW6.3 kmh SW 11.0 mph17.7 kmh 30.00 in1015.9 mb 0.00 in0.0 mm 0.00 in0.0 mm 0.01 in0.3 mm
04:17 PM 89.3°F31.8°C 74.9°F23.8°C 62% 2.4 mph S3.9 kmh S 11.0 mph17.7 kmh 30.01 in1016.3 mb 0.00 in0.0 mm 0.00 in0.0 mm 0.01 in0.3 mm
04:22 PM 89.2°F31.8°C 74.3°F23.5°C 61% 2.6 mph SW4.2 kmh SW 11.0 mph17.7 kmh 30.00 in1015.9 mb 0.00 in0.0 mm 0.00 in0.0 mm 0.01 in0.3 mm
04:27 PM 89.1°F31.7°C 74.2°F23.4°C 61% 4.7 mph SW7.6 kmh SW 11.0 mph17.7 kmh 30.00 in1015.9 mb 0.00 in0.0 mm 0.00 in0.0 mm 0.01 in0.3 mm
04:32 PM 89.1°F31.7°C 74.2°F23.4°C 61% 3.0 mph S4.8 kmh S 11.0 mph17.7 kmh 30.00 in1015.9 mb 0.00 in0.0 mm 0.00 in0.0 mm 0.01 in0.3 mm
04:37 PM 89.1°F31.7°C 73.9°F23.3°C 61% 3.3 mph SW5.3 kmh SW 11.0 mph17.7 kmh 30.00 in1015.9 mb 0.00 in0.0 mm 0.00 in0.0 mm 0.01 in0.3 mm
04:42 PM 89.1°F31.7°C 74.7°F23.7°C 62% Calm Calm 11.0 mph17.7 kmh 30.00 in1015.9 mb 0.00 in0.0 mm 0.00 in0.0 mm 0.01 in0.3 mm
04:47 PM 89.2°F31.8°C 74.8°F23.8°C 62% 1.4 mph SSE2.3 kmh SSE 8.0 mph12.9 kmh 30.00 in1015.9 mb 0.00 in0.0 mm 0.00 in0.0 mm 0.01 in0.3 mm
04:52 PM 89.5°F31.9°C 74.6°F23.7°C 61% 1.8 mph S2.9 kmh S 8.0 mph12.9 kmh 30.00 in1015.9 mb 0.00 in0.0 mm 0.00 in0.0 mm 0.01 in0.3 mm
04:57 PM 89.4°F31.9°C 74.0°F23.3°C 60% 2.9 mph SSE4.7 kmh SSE 9.0 mph14.5 kmh 30.00 in1015.9 mb 0.00 in0.0 mm 0.00 in0.0 mm 0.01 in0.3 mm
05:01 PM 89.7°F32.1°C 73.5°F23.1°C 59% 2.9 mph SW4.7 kmh SW 9.0 mph14.5 kmh 30.00 in1015.9 mb 0.00 in0.0 mm 0.00 in0.0 mm 0.01 in0.3 mm
05:06 PM 89.6°F32.0°C 74.2°F23.4°C 60% 2.3 mph SW3.7 kmh SW 9.0 mph14.5 kmh 30.00 in1015.9 mb 0.00 in0.0 mm 0.00 in0.0 mm 0.01 in0.3 mm
05:11 PM 89.7°F32.1°C 75.3°F24.1°C 62% 2.5 mph SW4.0 kmh SW 9.0 mph14.5 kmh 30.00 in1015.9 mb 0.00 in0.0 mm 0.00 in0.0 mm 0.01 in0.3 mm
05:16 PM 89.5°F31.9°C 74.6°F23.7°C 61% 2.4 mph S3.9 kmh S 9.0 mph14.5 kmh 30.00 in1015.9 mb 0.00 in0.0 mm 0.00 in0.0 mm 0.01 in0.3 mm
05:21 PM 89.5°F31.9°C 74.6°F23.7°C 61% 2.5 mph SSW4.0 kmh SSW 8.0 mph12.9 kmh 30.00 in1015.9 mb 0.00 in0.0 mm 0.00 in0.0 mm 0.01 in0.3 mm
05:26 PM 89.7°F32.1°C 74.3°F23.5°C 60% 1.6 mph S2.6 kmh S 8.0 mph12.9 kmh 29.99 in1015.6 mb 0.00 in0.0 mm 0.00 in0.0 mm 0.01 in0.3 mm
05:31 PM 89.7°F32.1°C 74.3°F23.5°C 60% 2.2 mph SW3.5 kmh SW 8.0 mph12.9 kmh 29.99 in1015.6 mb 0.00 in0.0 mm 0.00 in0.0 mm 0.01 in0.3 mm
05:36 PM 89.4°F31.9°C 75.0°F23.9°C 62% 1.5 mph S2.4 kmh S 7.0 mph11.3 kmh 30.00 in1015.9 mb 0.00 in0.0 mm 0.00 in0.0 mm 0.01 in0.3 mm
05:41 PM 89.5°F31.9°C 74.6°F23.7°C 61% 1.5 mph SW2.4 kmh SW 7.0 mph11.3 kmh 29.99 in1015.6 mb 0.00 in0.0 mm 0.00 in0.0 mm 0.01 in0.3 mm
05:46 PM 89.9°F32.2°C 75.0°F23.9°C 61% 2.4 mph SE3.9 kmh SE 7.0 mph11.3 kmh 29.99 in1015.6 mb 0.00 in0.0 mm 0.00 in0.0 mm 0.01 in0.3 mm
05:51 PM 89.9°F32.2°C 73.9°F23.3°C 59% 3.0 mph S4.8 kmh S 8.0 mph12.9 kmh 29.99 in1015.6 mb 0.00 in0.0 mm 0.00 in0.0 mm 0.01 in0.3 mm
05:57 PM 89.7°F32.1°C 73.0°F22.8°C 58% 3.8 mph SW6.1 kmh SW 10.0 mph16.1 kmh 29.99 in1015.6 mb 0.00 in0.0 mm 0.00 in0.0 mm 0.01 in0.3 mm
06:02 PM 89.8°F32.1°C 73.9°F23.3°C 59% 2.4 mph SW3.9 kmh SW 10.0 mph16.1 kmh 29.99 in1015.6 mb 0.00 in0.0 mm 0.00 in0.0 mm 0.01 in0.3 mm
06:07 PM 89.8°F32.1°C 73.3°F22.9°C 58% 3.5 mph SW5.6 kmh SW 10.0 mph16.1 kmh 29.99 in1015.6 mb 0.00 in0.0 mm 0.00 in0.0 mm 0.01 in0.3 mm
06:12 PM 89.9°F32.2°C 73.9°F23.3°C 59% 3.6 mph SW5.8 kmh SW 10.0 mph16.1 kmh 29.99 in1015.6 mb 0.00 in0.0 mm 0.00 in0.0 mm 0.01 in0.3 mm
06:17 PM 89.8°F32.1°C 73.9°F23.3°C 59% 1.3 mph SW2.1 kmh SW 9.0 mph14.5 kmh 29.99 in1015.6 mb 0.00 in0.0 mm 0.00 in0.0 mm 0.01 in0.3 mm
06:22 PM 89.9°F32.2°C 73.9°F23.3°C 59% 2.5 mph SSW4.0 kmh SSW 9.0 mph14.5 kmh 29.99 in1015.6 mb 0.00 in0.0 mm 0.00 in0.0 mm 0.01 in0.3 mm
06:27 PM 89.4°F31.9°C 74.0°F23.3°C 60% 3.7 mph SW6.0 kmh SW 12.0 mph19.3 kmh 29.99 in1015.6 mb 0.00 in0.0 mm 0.00 in0.0 mm 0.01 in0.3 mm
06:32 PM 88.9°F31.6°C 74.0°F23.3°C 61% 3.4 mph SW5.5 kmh SW 12.0 mph19.3 kmh 29.99 in1015.6 mb 0.00 in0.0 mm 0.00 in0.0 mm 0.01 in0.3 mm
06:37 PM 88.8°F31.6°C 74.4°F23.6°C 62% 1.8 mph SW2.9 kmh SW 12.0 mph19.3 kmh 29.99 in1015.6 mb 0.00 in0.0 mm 0.00 in0.0 mm 0.01 in0.3 mm
06:42 PM 88.4°F31.3°C 74.0°F23.3°C 62% 2.0 mph SW3.2 kmh SW 12.0 mph19.3 kmh 29.99 in1015.6 mb 0.00 in0.0 mm 0.00 in0.0 mm 0.01 in0.3 mm
06:47 PM 87.8°F31.0°C 73.0°F22.8°C 61% 3.5 mph SW5.6 kmh SW 10.0 mph16.1 kmh 29.99 in1015.6 mb 0.00 in0.0 mm 0.00 in0.0 mm 0.01 in0.3 mm
06:52 PM 86.7°F30.4°C 73.1°F22.8°C 64% 6.1 mph SW9.8 kmh SW 15.0 mph24.1 kmh 29.99 in1015.6 mb 0.00 in0.0 mm 0.00 in0.0 mm 0.01 in0.3 mm
06:57 PM 86.0°F30.0°C 73.6°F23.1°C 66% 4.2 mph SW6.8 kmh SW 15.0 mph24.1 kmh 29.99 in1015.6 mb 0.00 in0.0 mm 0.00 in0.0 mm 0.01 in0.3 mm
07:02 PM 85.2°F29.6°C 73.3°F22.9°C 67% 7.6 mph SW12.2 kmh SW 16.0 mph25.7 kmh 29.99 in1015.6 mb 0.00 in0.0 mm 0.00 in0.0 mm 0.01 in0.3 mm
07:07 PM 84.8°F29.3°C 73.3°F22.9°C 68% 5.4 mph SW8.7 kmh SW 16.0 mph25.7 kmh 29.99 in1015.6 mb 0.00 in0.0 mm 0.00 in0.0 mm 0.01 in0.3 mm
07:12 PM 84.6°F29.2°C 72.9°F22.7°C 68% 4.2 mph SW6.8 kmh SW 18.0 mph29.0 kmh 29.98 in1015.2 mb 0.00 in0.0 mm 0.00 in0.0 mm 0.01 in0.3 mm
07:17 PM 84.5°F29.2°C 73.5°F23.1°C 69% 3.8 mph SW6.1 kmh SW 18.0 mph29.0 kmh 29.98 in1015.2 mb 0.00 in0.0 mm 0.00 in0.0 mm 0.01 in0.3 mm
07:22 PM 84.3°F29.1°C 73.3°F22.9°C 69% 2.0 mph SW3.2 kmh SW 18.0 mph29.0 kmh 29.98 in1015.2 mb 0.00 in0.0 mm 0.00 in0.0 mm 0.01 in0.3 mm
07:27 PM 84.3°F29.1°C 73.7°F23.2°C 70% 2.0 mph SW3.2 kmh SW 18.0 mph29.0 kmh 29.98 in1015.2 mb 0.00 in0.0 mm 0.00 in0.0 mm 0.01 in0.3 mm
07:32 PM 84.5°F29.2°C 73.9°F23.3°C 70% 1.4 mph S2.3 kmh S 14.0 mph22.5 kmh 29.98 in1015.2 mb 0.00 in0.0 mm 0.00 in0.0 mm 0.01 in0.3 mm
07:37 PM 84.3°F29.1°C 73.4°F23.0°C 70% 2.9 mph SW4.7 kmh SW 12.0 mph19.3 kmh 29.98 in1015.2 mb 0.00 in0.0 mm 0.00 in0.0 mm 0.01 in0.3 mm
07:42 PM 84.2°F29.0°C 73.6°F23.1°C 70% 2.0 mph SW3.2 kmh SW 10.0 mph16.1 kmh 29.98 in1015.2 mb 0.00 in0.0 mm 0.00 in0.0 mm 0.01 in0.3 mm
07:47 PM 84.1°F28.9°C 73.5°F23.1°C 70% 2.3 mph SW3.7 kmh SW 10.0 mph16.1 kmh 29.98 in1015.2 mb 0.00 in0.0 mm 0.00 in0.0 mm 0.01 in0.3 mm
07:52 PM 84.1°F28.9°C 73.9°F23.3°C 71% 4.3 mph WSW6.9 kmh WSW 9.0 mph14.5 kmh 29.98 in1015.2 mb 0.00 in0.0 mm 0.00 in0.0 mm 0.01 in0.3 mm
07:57 PM 84.0°F28.9°C 73.8°F23.2°C 71% 1.0 mph SW1.6 kmh SW 9.0 mph14.5 kmh 29.99 in1015.6 mb 0.00 in0.0 mm 0.00 in0.0 mm 0.01 in0.3 mm
08:02 PM 83.7°F28.7°C 73.5°F23.1°C 71% 2.4 mph WSW3.9 kmh WSW 8.0 mph12.9 kmh 29.99 in1015.6 mb 0.00 in0.0 mm 0.00 in0.0 mm 0.01 in0.3 mm
08:07 PM 83.1°F28.4°C 73.1°F22.8°C 72% 1.8 mph WSW2.9 kmh WSW 8.0 mph12.9 kmh 29.99 in1015.6 mb 0.00 in0.0 mm 0.00 in0.0 mm 0.01 in0.3 mm
08:12 PM 82.5°F28.1°C 73.6°F23.1°C 74% 2.3 mph SW3.7 kmh SW 8.0 mph12.9 kmh 29.99 in1015.6 mb 0.00 in0.0 mm 0.00 in0.0 mm 0.01 in0.3 mm
08:17 PM 82.1°F27.8°C 73.2°F22.9°C 74% 2.4 mph SW3.9 kmh SW 6.0 mph9.7 kmh 30.00 in1015.9 mb 0.00 in0.0 mm 0.00 in0.0 mm 0.01 in0.3 mm
08:22 PM 81.7°F27.6°C 73.2°F22.9°C 75% 1.2 mph SW1.9 kmh SW 5.0 mph8.0 kmh 30.00 in1015.9 mb 0.00 in0.0 mm 0.00 in0.0 mm 0.01 in0.3 mm
08:27 PM 81.5°F27.5°C 73.0°F22.8°C 75% 1.3 mph WSW2.1 kmh WSW 7.0 mph11.3 kmh 30.01 in1016.3 mb 0.00 in0.0 mm 0.00 in0.0 mm 0.01 in0.3 mm
08:32 PM 81.2°F27.3°C 72.7°F22.6°C 75% 2.6 mph WSW4.2 kmh WSW 8.0 mph12.9 kmh 30.01 in1016.3 mb 0.00 in0.0 mm 0.00 in0.0 mm 0.01 in0.3 mm
08:37 PM 81.0°F27.2°C 72.9°F22.7°C 76% 2.2 mph WSW3.5 kmh WSW 8.0 mph12.9 kmh 30.01 in1016.3 mb 0.00 in0.0 mm 0.00 in0.0 mm 0.01 in0.3 mm
08:42 PM 80.8°F27.1°C 72.7°F22.6°C 76% 2.2 mph WSW3.5 kmh WSW 8.0 mph12.9 kmh 30.01 in1016.3 mb 0.00 in0.0 mm 0.00 in0.0 mm 0.01 in0.3 mm
08:47 PM 80.5°F26.9°C 72.8°F22.7°C 77% 1.3 mph WSW2.1 kmh WSW 8.0 mph12.9 kmh 30.01 in1016.3 mb 0.00 in0.0 mm 0.00 in0.0 mm 0.01 in0.3 mm
08:52 PM 80.3°F26.8°C 72.4°F22.4°C 77% 1.4 mph SW2.3 kmh SW 6.0 mph9.7 kmh 30.01 in1016.3 mb 0.00 in0.0 mm 0.00 in0.0 mm 0.01 in0.3 mm
08:57 PM 80.1°F26.7°C 72.8°F22.7°C 78% 1.6 mph SW2.6 kmh SW 5.0 mph8.0 kmh 30.02 in1016.6 mb 0.00 in0.0 mm 0.00 in0.0 mm 0.01 in0.3 mm
09:02 PM 79.9°F26.6°C 72.6°F22.6°C 78% 1.8 mph WSW2.9 kmh WSW 5.0 mph8.0 kmh 30.01 in1016.3 mb 0.00 in0.0 mm 0.00 in0.0 mm 0.01 in0.3 mm
09:07 PM 79.8°F26.6°C 72.5°F22.5°C 78% 2.0 mph SW3.2 kmh SW 5.0 mph8.0 kmh 30.01 in1016.3 mb 0.00 in0.0 mm 0.00 in0.0 mm 0.01 in0.3 mm
09:12 PM 79.6°F26.4°C 71.9°F22.2°C 77% 2.8 mph SW4.5 kmh SW 7.0 mph11.3 kmh 30.01 in1016.3 mb 0.00 in0.0 mm 0.00 in0.0 mm 0.01 in0.3 mm
09:17 PM 79.4°F26.3°C 71.7°F22.1°C 77% 2.2 mph SW3.5 kmh SW 7.0 mph11.3 kmh 30.02 in1016.6 mb 0.00 in0.0 mm 0.00 in0.0 mm 0.01 in0.3 mm
09:22 PM 79.2°F26.2°C 71.4°F21.9°C 77% 2.7 mph WSW4.3 kmh WSW 7.0 mph11.3 kmh 30.02 in1016.6 mb 0.00 in0.0 mm 0.00 in0.0 mm 0.01 in0.3 mm
09:27 PM 79.1°F26.2°C 71.3°F21.8°C 77% 1.7 mph WSW2.7 kmh WSW 7.0 mph11.3 kmh 30.02 in1016.6 mb 0.00 in0.0 mm 0.00 in0.0 mm 0.01 in0.3 mm
09:32 PM 78.9°F26.1°C 71.2°F21.8°C 77% 3.6 mph WSW5.8 kmh WSW 8.0 mph12.9 kmh 30.03 in1016.9 mb 0.00 in0.0 mm 0.00 in0.0 mm 0.01 in0.3 mm
09:37 PM 78.7°F25.9°C 71.0°F21.7°C 77% 2.2 mph SW3.5 kmh SW 9.0 mph14.5 kmh 30.03 in1016.9 mb 0.00 in0.0 mm 0.00 in0.0 mm 0.01 in0.3 mm
09:42 PM 78.5°F25.8°C 70.8°F21.6°C 77% 2.4 mph WSW3.9 kmh WSW 9.0 mph14.5 kmh 30.03 in1016.9 mb 0.00 in0.0 mm 0.00 in0.0 mm 0.01 in0.3 mm
09:47 PM 78.3°F25.7°C 70.9°F21.6°C 78% 2.2 mph SW3.5 kmh SW 9.0 mph14.5 kmh 30.03 in1016.9 mb 0.00 in0.0 mm 0.00 in0.0 mm 0.01 in0.3 mm
09:52 PM 78.0°F25.6°C 70.7°F21.5°C 78% 2.4 mph SW3.9 kmh SW 9.0 mph14.5 kmh 30.04 in1017.3 mb 0.00 in0.0 mm 0.00 in0.0 mm 0.01 in0.3 mm
09:57 PM 77.8°F25.4°C 70.9°F21.6°C 79% 2.9 mph SW4.7 kmh SW 7.0 mph11.3 kmh 30.04 in1017.3 mb 0.00 in0.0 mm 0.00 in0.0 mm 0.01 in0.3 mm
10:01 PM 77.6°F25.3°C 70.7°F21.5°C 79% 1.7 mph SW2.7 kmh SW 7.0 mph11.3 kmh 30.04 in1017.3 mb 0.00 in0.0 mm 0.00 in0.0 mm 0.01 in0.3 mm
10:06 PM 77.4°F25.2°C 70.7°F21.5°C 80% 2.1 mph SW3.4 kmh SW 7.0 mph11.3 kmh 30.04 in1017.3 mb 0.00 in0.0 mm 0.00 in0.0 mm 0.01 in0.3 mm
10:11 PM 77.2°F25.1°C 71.0°F21.7°C 81% 1.8 mph SW2.9 kmh SW 7.0 mph11.3 kmh 30.04 in1017.3 mb 0.00 in0.0 mm 0.00 in0.0 mm 0.01 in0.3 mm
10:16 PM 77.0°F25.0°C 70.8°F21.6°C 81% 1.0 mph WSW1.6 kmh WSW 5.0 mph8.0 kmh 30.04 in1017.3 mb 0.00 in0.0 mm 0.00 in0.0 mm 0.01 in0.3 mm
10:21 PM 76.8°F24.9°C 71.0°F21.7°C 82% 1.8 mph WSW2.9 kmh WSW 5.0 mph8.0 kmh 30.04 in1017.3 mb 0.00 in0.0 mm 0.00 in0.0 mm 0.01 in0.3 mm
10:26 PM 76.6°F24.8°C 70.8°F21.6°C 82% Calm Calm 4.0 mph6.4 kmh 30.04 in1017.3 mb 0.00 in0.0 mm 0.00 in0.0 mm 0.01 in0.3 mm
10:31 PM 76.4°F24.7°C 70.9°F21.6°C 83% Calm Calm 6.0 mph9.7 kmh 30.04 in1017.3 mb 0.00 in0.0 mm 0.00 in0.0 mm 0.01 in0.3 mm
10:36 PM 76.3°F24.6°C 71.2°F21.8°C 84% 1.4 mph SW2.3 kmh SW 6.0 mph9.7 kmh 30.04 in1017.3 mb 0.00 in0.0 mm 0.00 in0.0 mm 0.01 in0.3 mm
10:41 PM 76.1°F24.5°C 71.0°F21.7°C 84% 1.3 mph SW2.1 kmh SW 6.0 mph9.7 kmh 30.04 in1017.3 mb 0.00 in0.0 mm 0.00 in0.0 mm 0.01 in0.3 mm
10:46 PM 75.9°F24.4°C 71.1°F21.7°C 85% 1.0 mph SW1.6 kmh SW 6.0 mph9.7 kmh 30.04 in1017.3 mb 0.00 in0.0 mm 0.00 in0.0 mm 0.01 in0.3 mm
10:51 PM 75.7°F24.3°C 70.9°F21.6°C 85% 1.0 mph SW1.6 kmh SW 3.0 mph4.8 kmh 30.05 in1017.6 mb 0.00 in0.0 mm 0.00 in0.0 mm 0.01 in0.3 mm
10:56 PM 75.5°F24.2°C 71.0°F21.7°C 86% Calm Calm 3.0 mph4.8 kmh 30.05 in1017.6 mb 0.00 in0.0 mm 0.00 in0.0 mm 0.01 in0.3 mm
11:01 PM 75.4°F24.1°C 70.9°F21.6°C 86% 1.0 mph WSW1.6 kmh WSW 3.0 mph4.8 kmh 30.05 in1017.6 mb 0.00 in0.0 mm 0.00 in0.0 mm 0.01 in0.3 mm
11:06 PM 75.3°F24.1°C 70.8°F21.6°C 86% 1.0 mph WSW1.6 kmh WSW 3.0 mph4.8 kmh 30.05 in1017.6 mb 0.00 in0.0 mm 0.00 in0.0 mm 0.01 in0.3 mm
11:11 PM 75.1°F23.9°C 71.0°F21.7°C 87% Calm Calm 2.0 mph3.2 kmh 30.05 in1017.6 mb 0.00 in0.0 mm 0.00 in0.0 mm 0.01 in0.3 mm
11:16 PM 75.0°F23.9°C 70.9°F21.6°C 87% 1.0 mph SW1.6 kmh SW 2.0 mph3.2 kmh 30.05 in1017.6 mb 0.00 in0.0 mm 0.00 in0.0 mm 0.01 in0.3 mm
11:21 PM 74.9°F23.8°C 71.1°F21.7°C 88% Calm Calm 1.0 mph1.6 kmh 30.05 in1017.6 mb 0.00 in0.0 mm 0.00 in0.0 mm 0.01 in0.3 mm
11:26 PM 74.8°F23.8°C 71.0°F21.7°C 88% Calm Calm 1.0 mph1.6 kmh 30.05 in1017.6 mb 0.00 in0.0 mm 0.00 in0.0 mm 0.01 in0.3 mm
11:31 PM 74.7°F23.7°C 70.9°F21.6°C 88% Calm Calm 1.0 mph1.6 kmh 30.05 in1017.6 mb 0.00 in0.0 mm 0.00 in0.0 mm 0.01 in0.3 mm
11:36 PM 74.5°F23.6°C 71.0°F21.7°C 89% Calm Calm 1.0 mph1.6 kmh 30.06 in1017.9 mb 0.00 in0.0 mm 0.00 in0.0 mm 0.01 in0.3 mm
11:41 PM 74.3°F23.5°C 70.8°F21.6°C 89% Calm Calm 1.0 mph1.6 kmh 30.06 in1017.9 mb 0.00 in0.0 mm 0.00 in0.0 mm 0.01 in0.3 mm
11:46 PM 74.0°F23.3°C 70.9°F21.6°C 90% Calm Calm -- 30.06 in1017.9 mb 0.00 in0.0 mm 0.00 in0.0 mm 0.01 in0.3 mm
11:51 PM 73.9°F23.3°C 70.8°F21.6°C 90% Calm Calm -- 30.05 in1017.6 mb 0.00 in0.0 mm 0.00 in0.0 mm 0.01 in0.3 mm
11:56 PM 73.7°F23.2°C 70.6°F21.4°C 90% Calm Calm -- 30.05 in1017.6 mb 0.00 in0.0 mm 0.00 in0.0 mm 0.01 in0.3 mm